Time;durP1;ratioP1;P1;durP2;ratioP2;P2;SDS_P1;SDS_P2;PMS_P1;PMS_P2;Temp;Humidity;BMP_temperature;BMP_pressure;BME280_temperature;BME280_humidity;BME280_pressure;Samples;Min_cycle;Max_cycle;Signal;HPM_P1;HPM_P2
2023/01/26 00:02:01;;;;;;;20.05;6.72;;;0.00;99.90;;;;;;10235242;23;20105;-80
2023/01/26 00:06:05;;;;;;;21.65;8.23;;;0.00;99.90;;;;;;10209310;23;20008;-81
2023/01/26 00:10:06;;;;;;;18.50;8.45;;;-0.10;99.90;;;;;;10209833;23;20009;-81
2023/01/26 00:14:07;;;;;;;15.60;7.28;;;0.00;99.90;;;;;;10209467;23;20071;-80
2023/01/26 00:18:08;;;;;;;18.48;6.53;;;0.00;99.90;;;;;;10236005;23;20009;-81
2023/01/26 00:22:09;;;;;;;16.25;6.68;;;-0.30;99.90;;;;;;10235877;23;20001;-81
2023/01/26 00:26:13;;;;;;;14.48;7.07;;;0.00;99.90;;;;;;10209383;23;20444;-81
2023/01/26 00:30:15;;;;;;;8.25;4.13;;;0.10;99.90;;;;;;10209326;23;20001;-81
2023/01/26 00:34:15;;;;;;;6.43;3.42;;;-0.10;99.90;;;;;;10209450;23;20092;-80
2023/01/26 00:38:16;;;;;;;8.23;2.75;;;-0.20;99.90;;;;;;10209808;23;20001;-80
2023/01/26 00:42:16;;;;;;;3.70;2.55;;;-0.30;99.90;;;;;;10209070;23;20100;-80
2023/01/26 00:46:17;;;;;;;8.57;3.63;;;-0.40;99.90;;;;;;10209126;23;20304;-81
2023/01/26 00:50:17;;;;;;;11.77;3.67;;;-0.60;99.90;;;;;;10236216;23;19997;-80
2023/01/26 00:54:18;;;;;;;7.47;1.33;;;-0.60;99.90;;;;;;10209644;23;20465;-80
2023/01/26 00:58:18;;;;;;;8.85;4.45;;;-0.70;99.90;;;;;;10235618;23;20109;-79
2023/01/26 01:02:19;;;;;;;10.45;4.75;;;-0.70;99.90;;;;;;10208705;23;20016;-80
2023/01/26 01:06:20;;;;;;;15.40;6.93;;;-0.60;99.90;;;;;;10207939;23;20001;-80
2023/01/26 01:10:21;;;;;;;14.75;7.05;;;-0.60;99.90;;;;;;10209824;23;20023;-81
2023/01/26 01:14:21;;;;;;;16.88;6.22;;;-0.40;99.90;;;;;;10209040;23;20351;-81
2023/01/26 01:18:22;;;;;;;21.65;6.78;;;-0.40;99.90;;;;;;10208712;23;20005;-81
2023/01/26 01:22:22;;;;;;;14.18;4.38;;;-0.50;99.90;;;;;;10206357;23;19997;-81
2023/01/26 01:26:23;;;;;;;6.47;4.05;;;-0.50;99.90;;;;;;10208828;23;20009;-79
2023/01/26 01:30:23;;;;;;;16.30;7.15;;;-0.40;99.90;;;;;;10208540;23;20009;-81
2023/01/26 01:34:24;;;;;;;12.15;5.07;;;-0.50;99.90;;;;;;10208193;23;20448;-80
2023/01/26 01:38:25;;;;;;;15.18;6.25;;;-0.60;99.90;;;;;;10208984;23;20013;-79
2023/01/26 01:42:26;;;;;;;11.93;4.35;;;-0.50;99.90;;;;;;10208767;23;20076;-80
2023/01/26 01:46:35;;;;;;;7.55;3.10;;;-0.60;99.90;;;;;;10209531;23;20096;-81
2023/01/26 01:50:38;;;;;;;6.33;3.20;;;-0.60;99.90;;;;;;10208899;23;20447;-80
2023/01/26 01:54:44;;;;;;;3.35;1.10;;;-0.70;99.90;;;;;;10208840;23;20009;-81
2023/01/26 01:58:46;;;;;;;15.68;6.32;;;-0.70;99.90;;;;;;10235090;23;20005;-81
2023/01/26 02:03:17;;;;;;;15.63;5.93;;;-0.60;99.90;;;;;;10208755;23;20072;-80
2023/01/26 02:07:18;;;;;;;10.98;4.28;;;-0.70;99.90;;;;;;10208657;23;20436;-81
2023/01/26 02:11:31;;;;;;;13.95;6.63;;;-0.60;99.90;;;;;;10234938;23;20012;-80
2023/01/26 02:15:31;;;;;;;13.95;5.70;;;-0.60;99.90;;;;;;10208593;23;20009;-80
2023/01/26 02:19:52;;;;;;;15.25;5.03;;;-0.60;99.90;;;;;;10211299;23;20008;-81
2023/01/26 02:24:09;;;;;;;9.73;6.57;;;-0.60;99.90;;;;;;10212159;23;20009;-80
2023/01/26 02:28:09;;;;;;;13.35;5.80;;;-0.50;99.90;;;;;;10212077;23;20005;-81
2023/01/26 02:32:10;;;;;;;14.13;5.75;;;-0.60;99.90;;;;;;10211534;23;20046;-80
2023/01/26 02:36:34;;;;;;;14.80;5.88;;;-0.70;99.90;;;;;;10210780;23;20339;-80
2023/01/26 02:40:56;;;;;;;18.90;7.38;;;-0.70;99.90;;;;;;10211228;23;20016;-80
2023/01/26 02:44:57;;;;;;;13.13;5.72;;;-0.50;99.90;;;;;;10210740;23;20545;-81
2023/01/26 02:53:16;;;;;;;21.10;7.45;;;-0.40;99.90;;;;;;10237313;23;20517;-80
2023/01/26 02:57:17;;;;;;;15.35;6.72;;;-0.40;99.90;;;;;;10235997;23;20001;-81
2023/01/26 03:01:17;;;;;;;14.07;6.60;;;-0.50;99.90;;;;;;10236112;23;20387;-80
2023/01/26 03:05:18;;;;;;;19.15;7.25;;;-0.50;99.90;;;;;;10209329;23;20173;-80
2023/01/26 03:09:19;;;;;;;9.68;5.25;;;-0.30;99.90;;;;;;10237133;23;20005;-80
2023/01/26 03:13:19;;;;;;;13.27;6.03;;;-0.10;99.90;;;;;;10237039;23;20017;-80
2023/01/26 03:17:20;;;;;;;13.45;5.93;;;-0.30;99.90;;;;;;10236501;23;20008;-81
2023/01/26 03:29:59;;;;;;;14.87;6.07;;;-0.20;99.90;;;;;;10236155;23;20096;-80
2023/01/26 03:34:00;;;;;;;15.45;6.15;;;-0.40;99.90;;;;;;10209902;23;20009;-81
2023/01/26 03:38:00;;;;;;;12.50;5.80;;;-0.40;99.90;;;;;;10236489;23;20020;-80
2023/01/26 03:59:36;;;;;;;13.90;5.78;;;-0.40;99.90;;;;;;10255862;23;20068;-78
2023/01/26 04:08:19;;;;;;;19.90;6.73;;;-0.10;99.90;;;;;;10231285;23;20016;-78
2023/01/26 04:12:19;;;;;;;20.02;7.00;;;0.10;99.90;;;;;;10233114;23;20032;-78
2023/01/26 04:24:58;;;;;;;21.23;8.10;;;0.00;99.90;;;;;;10232961;23;20043;-78
2023/01/26 04:29:02;;;;;;;20.73;7.75;;;-0.10;99.90;;;;;;10206470;23;20009;-77
2023/01/26 04:33:03;;;;;;;11.68;6.45;;;-0.30;99.90;;;;;;10206602;23;20549;-78
2023/01/26 04:37:04;;;;;;;16.17;6.43;;;-0.20;99.90;;;;;;10206133;23;20005;-78
2023/01/26 04:41:04;;;;;;;15.77;5.50;;;-0.20;99.90;;;;;;10206420;23;20005;-78
2023/01/26 04:45:05;;;;;;;21.98;7.53;;;-0.20;99.90;;;;;;10232475;23;20479;-78
2023/01/26 04:49:06;;;;;;;20.73;7.07;;;-0.10;99.90;;;;;;10205809;23;20017;-79
2023/01/26 04:53:06;;;;;;;16.33;6.30;;;-0.30;99.90;;;;;;10204761;23;20013;-78
2023/01/26 04:57:07;;;;;;;16.63;7.93;;;-0.30;99.90;;;;;;10202623;23;20009;-78
2023/01/26 05:01:08;;;;;;;15.95;7.03;;;-0.30;99.90;;;;;;10229968;23;20013;-78
2023/01/26 05:05:09;;;;;;;15.38;6.57;;;-0.60;99.90;;;;;;10204558;23;20100;-79
2023/01/26 05:09:10;;;;;;;13.38;6.47;;;-0.80;99.90;;;;;;10204169;23;20020;-79
2023/01/26 05:13:11;;;;;;;16.23;7.10;;;-0.60;99.90;;;;;;10204762;23;20013;-78
2023/01/26 05:17:11;;;;;;;20.25;6.90;;;-0.50;99.90;;;;;;10231270;23;20013;-79
2023/01/26 05:21:12;;;;;;;19.45;6.53;;;-0.60;99.90;;;;;;10203945;23;20344;-79
2023/01/26 05:25:12;;;;;;;15.43;7.13;;;-0.40;99.90;;;;;;10230397;23;20009;-79
2023/01/26 05:29:13;;;;;;;15.50;6.07;;;0.00;99.90;;;;;;10203785;23;20372;-79
2023/01/26 05:33:14;;;;;;;18.27;6.10;;;0.00;99.90;;;;;;10230898;23;20059;-78
2023/01/26 05:37:15;;;;;;;19.30;6.85;;;0.00;99.90;;;;;;10230139;23;20012;-78
2023/01/26 05:41:15;;;;;;;18.67;6.85;;;-0.10;99.90;;;;;;10203382;23;20427;-78
2023/01/26 05:45:16;;;;;;;18.10;6.63;;;-0.20;99.90;;;;;;10203758;23;20009;-77
2023/01/26 05:49:17;;;;;;;14.35;5.40;;;-0.20;99.90;;;;;;10230339;23;20348;-78
2023/01/26 05:53:18;;;;;;;17.98;6.63;;;-0.20;99.90;;;;;;10205085;23;20482;-78
2023/01/26 05:57:19;;;;;;;18.80;6.90;;;-0.30;99.90;;;;;;10232163;23;20009;-78
2023/01/26 06:01:19;;;;;;;14.45;5.82;;;-0.40;99.90;;;;;;10234104;23;19997;-78
2023/01/26 06:05:20;;;;;;;12.45;6.30;;;-0.40;99.90;;;;;;10206485;23;20005;-78
2023/01/26 06:09:21;;;;;;;14.02;6.45;;;-0.30;99.90;;;;;;10206789;23;20092;-78
2023/01/26 06:13:21;;;;;;;19.20;6.10;;;-0.40;99.90;;;;;;10233314;23;20092;-78
2023/01/26 06:17:22;;;;;;;13.10;5.25;;;-0.40;99.90;;;;;;10232906;23;20715;-78
2023/01/26 06:21:22;;;;;;;15.77;5.22;;;-0.50;99.90;;;;;;10206820;23;20044;-78
2023/01/26 06:25:23;;;;;;;17.48;6.60;;;-0.40;99.90;;;;;;10206879;23;20065;-78
2023/01/26 06:29:23;;;;;;;13.48;5.70;;;-0.40;99.90;;;;;;10206918;23;20016;-79
2023/01/26 06:33:24;;;;;;;14.63;6.25;;;-0.60;99.90;;;;;;10233336;23;20087;-79
2023/01/26 06:37:24;;;;;;;15.98;5.85;;;-0.40;99.90;;;;;;10232904;23;20012;-79
2023/01/26 06:41:25;;;;;;;10.80;5.00;;;-0.50;99.90;;;;;;10206601;23;20005;-79
2023/01/26 06:45:25;;;;;;;15.55;5.90;;;-0.30;99.90;;;;;;10206645;23;20005;-79
2023/01/26 06:49:26;;;;;;;16.02;5.97;;;-0.30;99.90;;;;;;10206862;23;20301;-78
2023/01/26 06:53:37;;;;;;;12.00;5.22;;;-0.20;99.90;;;;;;10206858;23;20005;-78
2023/01/26 06:57:38;;;;;;;15.52;6.25;;;-0.50;99.90;;;;;;10206064;23;20073;-78
2023/01/26 07:01:42;;;;;;;17.95;6.82;;;-0.40;99.90;;;;;;10232198;23;20001;-78
2023/01/26 07:05:42;;;;;;;16.30;6.75;;;-0.40;99.90;;;;;;10205368;23;20004;-78
2023/01/26 07:09:43;;;;;;;13.32;5.72;;;-0.30;99.90;;;;;;10231015;23;20087;-78
2023/01/26 07:13:43;;;;;;;7.03;4.25;;;-0.30;99.90;;;;;;10205862;23;20359;-78
2023/01/26 07:17:44;;;;;;;14.45;5.63;;;-0.30;99.90;;;;;;10232947;23;20008;-78
2023/01/26 07:21:44;;;;;;;9.57;4.03;;;-0.40;99.90;;;;;;10206951;23;20063;-78
2023/01/26 07:25:45;;;;;;;7.10;3.78;;;-0.40;99.90;;;;;;10206606;23;19997;-79
2023/01/26 07:29:46;;;;;;;20.35;6.30;;;-0.50;99.90;;;;;;10206738;23;20008;-78
2023/01/26 07:33:46;;;;;;;12.80;5.50;;;-0.40;99.90;;;;;;10206377;23;20017;-78
2023/01/26 07:37:47;;;;;;;10.98;4.57;;;-0.30;99.90;;;;;;10205890;23;20035;-78
2023/01/26 07:41:48;;;;;;;16.25;5.35;;;-0.20;99.90;;;;;;10205941;23;20004;-78
2023/01/26 07:45:52;;;;;;;15.25;5.30;;;-0.30;99.90;;;;;;10205722;23;20347;-78
2023/01/26 07:49:52;;;;;;;16.80;6.93;;;-0.20;99.90;;;;;;10232184;23;20586;-79
2023/01/26 07:53:53;;;;;;;21.10;7.45;;;-0.20;99.90;;;;;;10205457;23;20255;-78
2023/01/26 07:57:53;;;;;;;13.98;5.15;;;-0.10;99.90;;;;;;10206014;23;20359;-79
2023/01/26 08:01:54;;;;;;;16.25;6.65;;;0.10;99.90;;;;;;10206107;23;20005;-78
2023/01/26 08:05:54;;;;;;;12.35;5.50;;;0.10;99.90;;;;;;10205342;23;20059;-78
2023/01/26 08:09:55;;;;;;;15.10;5.45;;;0.00;99.90;;;;;;10205316;23;20011;-79
2023/01/26 08:13:55;;;;;;;13.10;5.07;;;-0.10;99.90;;;;;;10204969;23;20043;-79
2023/01/26 08:17:56;;;;;;;22.17;6.90;;;-0.10;99.90;;;;;;10204672;23;20013;-79
2023/01/26 08:21:56;;;;;;;12.23;6.07;;;0.00;99.90;;;;;;10204724;23;20612;-79
2023/01/26 08:26:18;;;;;;;12.38;5.07;;;0.10;99.90;;;;;;10204738;23;20047;-79
2023/01/26 08:30:18;;;;;;;10.77;4.30;;;0.10;99.90;;;;;;10231414;23;20012;-79
2023/01/26 08:34:21;;;;;;;17.83;6.72;;;0.10;99.90;;;;;;10204650;23;20087;-79
2023/01/26 08:38:21;;;;;;;18.67;5.88;;;0.10;99.90;;;;;;10204601;23;20008;-79
2023/01/26 08:42:22;;;;;;;13.82;5.35;;;0.10;99.90;;;;;;10204650;23;20008;-78
2023/01/26 08:46:22;;;;;;;16.98;6.13;;;0.10;99.90;;;;;;10230824;23;20001;-78
2023/01/26 08:50:23;;;;;;;13.73;5.43;;;0.50;99.90;;;;;;10204004;23;20017;-78
2023/01/26 08:54:24;;;;;;;12.30;5.75;;;0.50;99.90;;;;;;10205154;23;20088;-78
2023/01/26 08:58:24;;;;;;;13.23;4.72;;;0.40;99.90;;;;;;10204421;23;20005;-79
2023/01/26 09:02:25;;;;;;;14.07;4.82;;;0.30;99.90;;;;;;10204240;23;20005;-79
2023/01/26 09:06:27;;;;;;;17.40;6.32;;;0.40;99.90;;;;;;10204057;23;20001;-79
2023/01/26 09:10:27;;;;;;;12.40;4.82;;;0.40;99.90;;;;;;10229857;23;19997;-79
2023/01/26 09:14:28;;;;;;;13.88;5.45;;;0.30;99.90;;;;;;10230552;23;20028;-79
2023/01/26 09:18:28;;;;;;;14.38;5.40;;;0.50;99.90;;;;;;10204104;23;20013;-79
2023/01/26 09:22:29;;;;;;;19.15;6.60;;;0.50;99.90;;;;;;10231066;23;20477;-79
2023/01/26 09:26:30;;;;;;;18.88;7.07;;;0.70;99.90;;;;;;10204326;23;20009;-79
2023/01/26 09:30:31;;;;;;;12.38;5.35;;;0.70;99.90;;;;;;10207358;23;20380;-79
2023/01/26 09:34:32;;;;;;;16.60;4.00;;;0.80;99.90;;;;;;10233300;23;20064;-79
2023/01/26 09:38:33;;;;;;;9.50;4.05;;;0.80;99.90;;;;;;10207115;23;20013;-78
2023/01/26 09:42:42;;;;;;;14.57;4.55;;;0.70;99.90;;;;;;10207367;23;20011;-78
2023/01/26 09:47:06;;;;;;;10.60;4.27;;;0.40;99.90;;;;;;10207630;23;20005;-79
2023/01/26 09:51:19;;;;;;;5.03;1.92;;;0.30;99.90;;;;;;10227119;23;20045;-81
2023/01/26 09:55:21;;;;;;;5.30;1.85;;;0.70;99.90;;;;;;10237556;23;20008;-81
2023/01/26 09:59:34;;;;;;;7.13;2.47;;;0.80;99.90;;;;;;10216074;23;20010;-81
2023/01/26 10:03:46;;;;;;;4.50;2.42;;;0.50;99.90;;;;;;10189724;23;19998;-81
2023/01/26 10:07:46;;;;;;;3.53;2.20;;;0.40;99.90;;;;;;10187672;23;20014;-81
2023/01/26 10:12:01;;;;;;;2.97;1.88;;;0.50;99.90;;;;;;10187804;23;20080;-81
2023/01/26 10:16:09;;;;;;;7.55;3.45;;;0.40;99.90;;;;;;10162354;23;20348;-81
2023/01/26 10:20:35;;;;;;;7.07;3.00;;;0.60;99.90;;;;;;10213992;23;20013;-81
2023/01/26 10:24:37;;;;;;;12.15;5.32;;;0.80;99.90;;;;;;10188696;23;20337;-82
2023/01/26 10:28:40;;;;;;;8.93;3.78;;;1.20;99.90;;;;;;10189403;23;20013;-81
2023/01/26 10:32:42;;;;;;;7.88;3.55;;;1.30;99.90;;;;;;10189601;23;20010;-82
2023/01/26 10:36:45;;;;;;;9.57;3.22;;;1.60;99.90;;;;;;10189243;23;20029;-82
2023/01/26 10:40:45;;;;;;;8.05;3.15;;;1.50;99.90;;;;;;10190163;23;20445;-82
2023/01/26 10:44:49;;;;;;;6.68;2.95;;;1.60;99.90;;;;;;10188249;23;20005;-81
2023/01/26 10:48:54;;;;;;;7.68;3.13;;;1.40;99.90;;;;;;10188338;23;20477;-82
2023/01/26 10:53:03;;;;;;;6.13;2.85;;;1.30;99.90;;;;;;10188547;23;20014;-81
2023/01/26 10:57:14;;;;;;;8.50;2.67;;;1.30;99.90;;;;;;10189138;23;20009;-82
2023/01/26 11:01:17;;;;;;;9.63;2.50;;;1.30;99.90;;;;;;10164230;23;20005;-82
2023/01/26 11:05:23;;;;;;;5.20;2.65;;;1.50;99.90;;;;;;10190623;23;20170;-82
2023/01/26 11:09:28;;;;;;;5.53;2.85;;;1.40;99.90;;;;;;10190046;23;20025;-82
2023/01/26 11:13:29;;;;;;;9.30;2.95;;;1.40;99.90;;;;;;10189245;23;20040;-81
2023/01/26 11:17:54;;;;;;;6.82;2.88;;;1.40;99.90;;;;;;10188961;23;20032;-82
2023/01/26 11:22:03;;;;;;;4.22;1.60;;;1.10;99.90;;;;;;10164068;23;20002;-82
2023/01/26 11:26:04;;;;;;;7.85;3.65;;;1.00;99.90;;;;;;10164241;23;20013;-82
2023/01/26 11:30:31;;;;;;;6.32;2.60;;;0.80;99.90;;;;;;10189749;23;20092;-81
2023/01/26 11:34:49;;;;;;;10.77;4.03;;;1.00;99.90;;;;;;10191460;23;20101;-81
2023/01/26 11:38:59;;;;;;;9.23;3.30;;;0.80;99.90;;;;;;10190231;23;20104;-81
2023/01/26 11:43:27;;;;;;;8.52;3.33;;;0.90;99.90;;;;;;10183169;23;20076;-81
2023/01/26 11:47:41;;;;;;;10.55;3.45;;;0.80;99.90;;;;;;10155936;23;20487;-82
2023/01/26 11:51:56;;;;;;;7.53;3.10;;;0.90;99.90;;;;;;10181535;23;20070;-81
2023/01/26 11:56:25;;;;;;;9.00;3.53;;;1.10;99.90;;;;;;10181164;23;20337;-81
2023/01/26 12:00:40;;;;;;;8.52;4.45;;;1.20;99.90;;;;;;10180313;23;20013;-81
2023/01/26 12:04:44;;;;;;;7.82;3.42;;;1.40;99.90;;;;;;10179835;23;20404;-82
2023/01/26 12:08:55;;;;;;;12.80;3.47;;;1.40;99.90;;;;;;10182711;23;20036;-81
2023/01/26 12:13:10;;;;;;;4.63;2.67;;;1.50;99.90;;;;;;10181555;23;20510;-81
2023/01/26 12:17:27;;;;;;;4.10;2.15;;;1.30;99.90;;;;;;10180765;23;20100;-81
2023/01/26 12:21:30;;;;;;;9.43;3.60;;;1.00;99.90;;;;;;10180327;23;20001;-81
2023/01/26 12:25:40;;;;;;;8.77;4.13;;;1.00;99.90;;;;;;10180669;23;20001;-81
2023/01/26 12:30:00;;;;;;;8.75;2.85;;;1.10;99.90;;;;;;10155966;23;20001;-81
2023/01/26 12:34:00;;;;;;;9.05;3.53;;;1.10;99.90;;;;;;10180688;23;20340;-81
2023/01/26 12:38:10;;;;;;;10.70;3.92;;;0.90;99.90;;;;;;10180030;23;20014;-81
2023/01/26 12:42:19;;;;;;;9.68;3.35;;;0.90;99.90;;;;;;10180580;23;20334;-81
2023/01/26 12:46:22;;;;;;;6.18;2.55;;;0.90;99.90;;;;;;10180993;23;20388;-81
2023/01/26 12:50:37;;;;;;;8.50;3.95;;;0.80;99.90;;;;;;10180792;23;20020;-82
2023/01/26 12:54:53;;;;;;;10.15;3.42;;;0.90;99.90;;;;;;10180370;23;20057;-81
2023/01/26 12:58:56;;;;;;;6.85;3.05;;;0.80;99.90;;;;;;10178914;23;20352;-81
2023/01/26 13:03:18;;;;;;;7.38;3.85;;;0.60;99.90;;;;;;10183740;23;20061;-81
2023/01/26 13:07:28;;;;;;;9.70;4.22;;;1.10;99.90;;;;;;10180777;23;20016;-81
2023/01/26 13:11:38;;;;;;;7.35;3.35;;;1.00;99.90;;;;;;10180565;23;20088;-81
2023/01/26 13:15:39;;;;;;;9.15;3.67;;;0.90;99.90;;;;;;10177978;23;20293;-81
2023/01/26 13:19:42;;;;;;;10.32;3.95;;;0.70;99.90;;;;;;10180858;23;20352;-81
2023/01/26 13:23:43;;;;;;;8.82;3.13;;;0.50;99.90;;;;;;10179736;23;20012;-81
2023/01/26 13:27:56;;;;;;;9.18;3.63;;;0.50;99.90;;;;;;10178772;23;20088;-81
2023/01/26 13:32:21;;;;;;;7.43;4.15;;;0.80;99.90;;;;;;10180181;23;20036;-81
2023/01/26 13:36:22;;;;;;;7.75;3.72;;;0.90;99.90;;;;;;10179452;23;20093;-80
2023/01/26 13:40:29;;;;;;;8.75;4.22;;;0.50;99.90;;;;;;10181847;23;20012;-81
2023/01/26 13:44:37;;;;;;;7.28;3.38;;;0.40;99.90;;;;;;10179365;23;20444;-81
2023/01/26 13:48:48;;;;;;;12.18;5.43;;;0.60;99.90;;;;;;10179405;23;20071;-81
2023/01/26 13:52:49;;;;;;;10.38;3.67;;;0.60;99.90;;;;;;10180114;23;20044;-81
2023/01/26 13:57:06;;;;;;;4.43;2.40;;;0.50;99.90;;;;;;10178679;23;20009;-81
2023/01/26 14:01:12;;;;;;;11.68;3.33;;;0.30;99.90;;;;;;10181134;23;20009;-81
2023/01/26 14:05:21;;;;;;;4.82;2.33;;;0.20;99.90;;;;;;10179219;23;20021;-80
2023/01/26 14:09:22;;;;;;;5.32;2.85;;;0.10;99.90;;;;;;10179888;23;20037;-81
2023/01/26 14:13:34;;;;;;;7.80;3.20;;;0.10;99.90;;;;;;10184634;23;20381;-81
2023/01/26 14:17:45;;;;;;;4.80;2.85;;;0.10;99.90;;;;;;10189037;23;20102;-80
2023/01/26 14:21:46;;;;;;;7.55;4.03;;;0.10;99.90;;;;;;10160311;23;20001;-81
2023/01/26 14:26:00;;;;;;;2.83;1.60;;;0.10;99.90;;;;;;10185261;23;20044;-81
2023/01/26 14:30:03;;;;;;;4.47;2.65;;;0.10;99.90;;;;;;10182866;23;20021;-81
2023/01/26 14:34:09;;;;;;;3.30;2.00;;;0.10;99.90;;;;;;10182246;23;20009;-80
2023/01/26 14:38:13;;;;;;;8.48;3.05;;;0.10;99.90;;;;;;10157734;23;20057;-80
2023/01/26 14:42:17;;;;;;;8.25;3.70;;;0.00;99.90;;;;;;10183158;23;20001;-81
2023/01/26 14:46:34;;;;;;;3.80;2.28;;;-0.10;99.90;;;;;;10183540;23;20002;-81
2023/01/26 14:50:36;;;;;;;1.45;1.13;;;0.10;99.90;;;;;;10183012;23;20020;-80
2023/01/26 14:54:38;;;;;;;5.55;2.97;;;0.00;99.90;;;;;;10181707;23;20002;-80
2023/01/26 14:58:40;;;;;;;3.90;1.58;;;-0.10;99.90;;;;;;10181723;23;20438;-81
2023/01/26 15:02:46;;;;;;;3.45;1.35;;;-0.10;99.90;;;;;;10181819;23;20009;-80
2023/01/26 15:06:46;;;;;;;5.63;3.38;;;-0.10;99.90;;;;;;10174315;23;20009;-80
2023/01/26 15:12:14;;;;;;;5.65;2.95;;;-0.20;99.90;;;;;;10181494;23;20508;-80
2023/01/26 15:15:28;;;;;;;7.10;3.05;;;-0.20;99.90;;;;;;10183027;23;20002;-80
2023/01/26 15:19:46;;;;;;;7.32;2.92;;;-0.20;99.90;;;;;;10181353;23;20009;-80
2023/01/26 15:23:51;;;;;;;7.90;3.67;;;-0.10;99.90;;;;;;10182496;23;20383;-80
2023/01/26 15:27:55;;;;;;;6.45;3.25;;;-0.20;99.90;;;;;;10186879;23;20643;-80
2023/01/26 15:31:56;;;;;;;7.40;2.90;;;-0.10;99.90;;;;;;10184779;23;20557;-80
2023/01/26 15:35:57;;;;;;;9.35;3.28;;;-0.10;99.90;;;;;;10186694;23;20045;-80
2023/01/26 15:39:58;;;;;;;6.22;3.03;;;-0.10;99.90;;;;;;10185018;23;20013;-80
2023/01/26 15:43:58;;;;;;;3.75;1.52;;;-0.10;99.90;;;;;;10185365;23;20013;-81
2023/01/26 15:48:00;;;;;;;4.45;3.25;;;-0.20;99.90;;;;;;10161642;23;20021;-80
2023/01/26 15:52:01;;;;;;;4.68;3.00;;;-0.20;99.90;;;;;;10211622;23;20040;-85
2023/01/26 15:56:01;;;;;;;9.52;4.82;;;-0.30;99.90;;;;;;10216921;23;20005;-85
2023/01/26 16:00:03;;;;;;;11.18;4.57;;;-0.30;99.90;;;;;;10223585;23;20018;-85
2023/01/26 16:04:04;;;;;;;4.75;1.65;;;-0.20;99.90;;;;;;10265703;23;20067;-82
2023/01/26 16:08:04;;;;;;;5.05;2.83;;;-0.30;99.90;;;;;;10291098;23;20000;-81
2023/01/26 16:12:09;;;;;;;14.10;5.03;;;-0.20;99.90;;;;;;10266986;23;20051;-80
2023/01/26 16:16:10;;;;;;;4.50;2.63;;;-0.20;99.90;;;;;;10271216;23;20031;-81
2023/01/26 16:20:11;;;;;;;10.52;4.50;;;-0.20;99.90;;;;;;10294529;23;20012;-79
2023/01/26 16:24:12;;;;;;;6.38;2.92;;;-0.20;99.90;;;;;;10282359;23;20363;-82
2023/01/26 16:28:13;;;;;;;7.05;3.30;;;-0.10;99.90;;;;;;10266614;23;20103;-80
2023/01/26 16:32:27;;;;;;;5.57;3.55;;;-0.10;99.90;;;;;;10260819;23;20075;-80
2023/01/26 16:36:28;;;;;;;7.35;4.10;;;0.00;99.90;;;;;;10260850;23;20032;-80
2023/01/26 16:40:29;;;;;;;13.07;4.45;;;0.00;99.90;;;;;;10260614;23;20007;-80
2023/01/26 16:44:30;;;;;;;14.52;4.35;;;-0.10;99.90;;;;;;10259210;23;20005;-80
2023/01/26 16:48:33;;;;;;;13.10;4.45;;;0.00;99.90;;;;;;10260364;23;20012;-81
2023/01/26 16:52:34;;;;;;;9.05;4.20;;;-0.10;99.90;;;;;;10258591;23;20090;-80
2023/01/26 16:56:34;;;;;;;6.57;3.38;;;-0.10;99.90;;;;;;10258452;23;20526;-79
2023/01/26 17:00:35;;;;;;;6.22;3.13;;;-0.10;99.90;;;;;;10258061;23;20333;-80
2023/01/26 17:04:36;;;;;;;10.63;4.05;;;-0.10;99.90;;;;;;10257610;23;20008;-79
2023/01/26 17:08:36;;;;;;;8.95;4.43;;;-0.10;99.90;;;;;;10257589;23;20020;-81
2023/01/26 17:12:37;;;;;;;9.30;4.15;;;-0.20;99.90;;;;;;10257417;23;20005;-80
2023/01/26 17:16:38;;;;;;;10.30;4.70;;;-0.20;99.90;;;;;;10256659;23;20005;-79
2023/01/26 17:20:40;;;;;;;10.23;4.43;;;-0.20;99.90;;;;;;10284587;23;20012;-79
2023/01/26 17:24:41;;;;;;;6.90;2.70;;;0.00;99.90;;;;;;10258818;23;20008;-80
2023/01/26 17:28:43;;;;;;;9.48;3.85;;;0.10;99.90;;;;;;10259210;23;20019;-79
2023/01/26 17:32:44;;;;;;;9.13;4.05;;;-0.10;99.90;;;;;;10258944;23;20358;-80
2023/01/26 17:36:44;;;;;;;8.95;4.05;;;-0.20;99.90;;;;;;10258561;23;20016;-79
2023/01/26 17:40:53;;;;;;;6.00;3.85;;;-0.20;99.90;;;;;;10257832;23;20004;-79
2023/01/26 17:44:56;;;;;;;9.45;4.45;;;-0.20;99.90;;;;;;10256831;23;20020;-80
2023/01/26 17:48:59;;;;;;;8.40;3.63;;;-0.10;99.90;;;;;;10258351;23;20103;-80
2023/01/26 17:53:00;;;;;;;8.35;4.05;;;-0.10;99.90;;;;;;10260618;23;20020;-80
2023/01/26 17:57:00;;;;;;;9.20;4.22;;;-0.20;99.90;;;;;;10260622;23;20004;-81
2023/01/26 18:01:01;;;;;;;10.18;4.57;;;-0.20;99.90;;;;;;10257497;23;20004;-80
2023/01/26 18:05:02;;;;;;;8.48;3.50;;;-0.20;99.90;;;;;;10283735;23;20011;-81
2023/01/26 18:09:04;;;;;;;9.82;4.78;;;-0.30;99.90;;;;;;10283997;23;20015;-81
2023/01/26 18:13:04;;;;;;;9.65;4.13;;;-0.10;99.90;;;;;;10256989;23;20087;-80
2023/01/26 18:17:05;;;;;;;7.65;4.13;;;-0.10;99.90;;;;;;10255344;23;20012;-79
2023/01/26 18:21:18;;;;;;;9.45;4.22;;;-0.40;99.90;;;;;;10282086;23;19997;-81
2023/01/26 18:25:20;;;;;;;7.00;4.13;;;-0.50;99.90;;;;;;10256725;23;20008;-80
2023/01/26 18:29:20;;;;;;;9.45;4.90;;;-0.30;99.90;;;;;;10256676;23;20012;-81
2023/01/26 18:33:21;;;;;;;8.82;4.45;;;0.10;99.90;;;;;;10259816;23;20011;-80
2023/01/26 18:37:21;;;;;;;10.90;4.45;;;0.10;99.90;;;;;;10258559;23;20036;-80
2023/01/26 18:41:23;;;;;;;8.68;4.60;;;-0.30;99.90;;;;;;10259492;23;20467;-81
2023/01/26 18:45:24;;;;;;;9.02;3.95;;;-0.50;99.90;;;;;;10283897;23;20026;-80
2023/01/26 18:49:24;;;;;;;8.10;3.85;;;-0.30;99.90;;;;;;10258032;23;20355;-81
2023/01/26 18:53:25;;;;;;;8.70;3.95;;;0.10;99.90;;;;;;10257445;23;20473;-80
2023/01/26 18:57:26;;;;;;;9.68;4.05;;;0.10;99.90;;;;;;10258639;23;20111;-79
2023/01/26 19:01:26;;;;;;;9.88;4.45;;;0.10;99.90;;;;;;10285802;23;20009;-80
2023/01/26 19:05:28;;;;;;;11.73;4.78;;;-0.10;99.90;;;;;;10259094;23;20454;-80
2023/01/26 19:09:33;;;;;;;10.43;4.65;;;-0.30;99.90;;;;;;10256431;23;20008;-80
2023/01/26 19:13:34;;;;;;;10.32;5.13;;;-0.30;99.90;;;;;;10257230;23;20016;-79
2023/01/26 19:17:35;;;;;;;7.55;4.22;;;-0.10;99.90;;;;;;10259572;23;20063;-80
2023/01/26 19:21:36;;;;;;;13.30;5.07;;;0.10;99.90;;;;;;10259384;23;20008;-80
2023/01/26 19:25:36;;;;;;;15.32;5.07;;;0.10;99.90;;;;;;10259097;23;20059;-80
2023/01/26 19:29:37;;;;;;;12.88;5.25;;;-0.30;99.90;;;;;;10260428;23;20394;-79
2023/01/26 19:33:38;;;;;;;8.45;4.18;;;-0.50;99.90;;;;;;10258538;23;20061;-82
2023/01/26 19:37:38;;;;;;;10.02;4.68;;;-0.10;99.90;;;;;;10260260;23;20008;-80
2023/01/26 19:41:39;;;;;;;14.45;5.10;;;0.10;99.90;;;;;;10286459;23;20537;-82
2023/01/26 19:45:40;;;;;;;14.95;4.90;;;-0.20;99.90;;;;;;10286746;23;20004;-80
2023/01/26 19:49:41;;;;;;;14.27;5.07;;;0.00;99.90;;;;;;10259392;23;20020;-80
2023/01/26 19:53:47;;;;;;;11.13;4.07;;;0.10;99.90;;;;;;10286746;23;20005;-80
2023/01/26 19:57:47;;;;;;;10.77;5.57;;;0.10;99.90;;;;;;10260728;23;20016;-80
2023/01/26 20:01:48;;;;;;;10.68;3.60;;;0.00;99.90;;;;;;10260465;23;20091;-80
2023/01/26 20:05:50;;;;;;;11.02;4.13;;;0.00;99.90;;;;;;10260431;23;20235;-80
2023/01/26 20:09:50;;;;;;;13.88;5.07;;;0.00;99.90;;;;;;10259579;23;20019;-81
2023/01/26 20:13:59;;;;;;;11.50;3.92;;;-0.10;99.90;;;;;;10260423;23;20008;-79
2023/01/26 20:18:01;;;;;;;9.48;4.80;;;-0.10;99.90;;;;;;10258982;23;20328;-80
2023/01/26 20:22:02;;;;;;;12.50;5.30;;;-0.10;99.90;;;;;;10260138;23;20005;-81
2023/01/26 20:26:06;;;;;;;10.38;5.53;;;-0.10;99.90;;;;;;10286370;23;19996;-82
2023/01/26 20:30:07;;;;;;;11.20;5.40;;;-0.20;99.90;;;;;;10259423;23;20700;-82
2023/01/26 20:34:08;;;;;;;2.40;1.60;;;-0.40;99.90;;;;;;10287142;23;20027;-81
2023/01/26 20:38:09;;;;;;;7.15;4.07;;;-0.20;99.90;;;;;;10286387;23;20008;-81
2023/01/26 20:42:10;;;;;;;7.68;3.60;;;-0.30;99.90;;;;;;10285593;23;20622;-80
2023/01/26 20:46:14;;;;;;;6.53;3.20;;;-0.40;99.90;;;;;;10259679;23;20502;-81
2023/01/26 20:50:14;;;;;;;5.03;3.20;;;-0.50;99.90;;;;;;10263882;23;20029;-80
2023/01/26 20:54:16;;;;;;;8.63;4.10;;;-0.60;99.90;;;;;;10256548;23;20009;-80
2023/01/26 20:58:16;;;;;;;14.82;4.78;;;-0.60;99.90;;;;;;10281903;23;20319;-80
2023/01/26 21:02:17;;;;;;;7.35;4.32;;;-0.70;99.90;;;;;;10255361;23;20009;-80
2023/01/26 21:06:20;;;;;;;3.80;2.47;;;-0.70;99.90;;;;;;10254840;23;20001;-79
2023/01/26 21:10:20;;;;;;;10.27;5.20;;;-0.60;99.90;;;;;;10254356;23;20075;-79
2023/01/26 21:14:21;;;;;;;2.13;1.27;;;-0.60;99.90;;;;;;10255431;23;20092;-79
2023/01/26 21:18:21;;;;;;;1.08;1.00;;;-0.60;99.90;;;;;;10254888;23;20008;-79
2023/01/26 21:22:22;;;;;;;10.88;3.70;;;-0.60;99.90;;;;;;10254864;23;20450;-79
2023/01/26 21:26:26;;;;;;;10.18;4.78;;;-0.70;99.90;;;;;;10255271;23;20541;-79
2023/01/26 21:30:27;;;;;;;9.77;4.75;;;-0.70;99.90;;;;;;10254607;23;20310;-80
2023/01/26 21:34:27;;;;;;;2.53;1.52;;;-0.70;99.90;;;;;;10255072;23;20008;-80